sensor_id;sensor_type;location;lat;lon;timestamp;P1;durP1;ratioP1;P2;durP2;ratioP2
56712;SDS011;42589;45.536;9.032;2022-09-09T00:04:43;13.65;;;8.60;;
56712;SDS011;42589;45.536;9.032;2022-09-09T00:07:53;16.60;;;9.40;;
56712;SDS011;42589;45.536;9.032;2022-09-09T00:10:59;11.25;;;8.80;;
56712;SDS011;42589;45.536;9.032;2022-09-09T00:14:07;16.65;;;10.77;;
56712;SDS011;42589;45.536;9.032;2022-09-09T00:17:33;14.80;;;10.68;;
56712;SDS011;42589;45.536;9.032;2022-09-09T00:20:54;16.85;;;11.57;;
56712;SDS011;42589;45.536;9.032;2022-09-09T00:23:57;20.17;;;11.77;;
56712;SDS011;42589;45.536;9.032;2022-09-09T00:27:01;17.45;;;11.32;;
56712;SDS011;42589;45.536;9.032;2022-09-09T00:30:27;15.57;;;11.38;;
56712;SDS011;42589;45.536;9.032;2022-09-09T00:33:34;16.90;;;10.88;;
56712;SDS011;42589;45.536;9.032;2022-09-09T00:36:36;17.67;;;12.07;;
56712;SDS011;42589;45.536;9.032;2022-09-09T00:39:42;20.92;;;11.95;;
56712;SDS011;42589;45.536;9.032;2022-09-09T00:42:45;17.23;;;11.77;;
56712;SDS011;42589;45.536;9.032;2022-09-09T00:49:02;17.88;;;11.23;;
56712;SDS011;42589;45.536;9.032;2022-09-09T00:58:20;16.48;;;11.20;;
56712;SDS011;42589;45.536;9.032;2022-09-09T01:01:20;15.57;;;11.32;;
56712;SDS011;42589;45.536;9.032;2022-09-09T01:04:28;19.13;;;11.27;;
56712;SDS011;42589;45.536;9.032;2022-09-09T01:07:33;16.95;;;10.88;;
56712;SDS011;42589;45.536;9.032;2022-09-09T01:10:50;20.33;;;11.63;;
56712;SDS011;42589;45.536;9.032;2022-09-09T01:13:56;19.42;;;11.85;;
56712;SDS011;42589;45.536;9.032;2022-09-09T01:20:37;17.80;;;12.43;;
56712;SDS011;42589;45.536;9.032;2022-09-09T01:27:00;20.63;;;13.32;;
56712;SDS011;42589;45.536;9.032;2022-09-09T01:30:12;16.05;;;11.85;;
56712;SDS011;42589;45.536;9.032;2022-09-09T01:33:17;17.92;;;12.88;;
56712;SDS011;42589;45.536;9.032;2022-09-09T01:36:26;18.98;;;12.50;;
56712;SDS011;42589;45.536;9.032;2022-09-09T01:39:34;20.05;;;13.10;;
56712;SDS011;42589;45.536;9.032;2022-09-09T01:42:36;18.67;;;12.83;;
56712;SDS011;42589;45.536;9.032;2022-09-09T01:45:38;18.35;;;12.32;;
56712;SDS011;42589;45.536;9.032;2022-09-09T01:48:40;18.15;;;13.57;;
56712;SDS011;42589;45.536;9.032;2022-09-09T01:51:42;16.27;;;11.40;;
56712;SDS011;42589;45.536;9.032;2022-09-09T01:54:43;19.38;;;13.02;;
56712;SDS011;42589;45.536;9.032;2022-09-09T01:57:50;20.20;;;13.27;;
56712;SDS011;42589;45.536;9.032;2022-09-09T02:10:42;17.70;;;13.20;;
56712;SDS011;42589;45.536;9.032;2022-09-09T02:13:54;18.35;;;12.95;;
56712;SDS011;42589;45.536;9.032;2022-09-09T02:17:06;20.70;;;12.85;;
56712;SDS011;42589;45.536;9.032;2022-09-09T02:20:12;18.92;;;13.20;;
56712;SDS011;42589;45.536;9.032;2022-09-09T02:23:15;20.80;;;14.10;;
56712;SDS011;42589;45.536;9.032;2022-09-09T02:26:16;17.25;;;12.15;;
56712;SDS011;42589;45.536;9.032;2022-09-09T02:29:22;19.73;;;12.52;;
56712;SDS011;42589;45.536;9.032;2022-09-09T02:32:27;19.05;;;12.30;;
56712;SDS011;42589;45.536;9.032;2022-09-09T02:38:34;21.05;;;13.70;;
56712;SDS011;42589;45.536;9.032;2022-09-09T02:41:50;22.83;;;12.20;;
56712;SDS011;42589;45.536;9.032;2022-09-09T02:44:51;18.88;;;11.60;;
56712;SDS011;42589;45.536;9.032;2022-09-09T02:50:54;15.27;;;11.23;;
56712;SDS011;42589;45.536;9.032;2022-09-09T02:57:27;18.67;;;10.48;;
56712;SDS011;42589;45.536;9.032;2022-09-09T03:00:31;20.05;;;11.63;;
56712;SDS011;42589;45.536;9.032;2022-09-09T03:03:32;19.85;;;12.07;;
56712;SDS011;42589;45.536;9.032;2022-09-09T03:06:33;17.70;;;11.02;;
56712;SDS011;42589;45.536;9.032;2022-09-09T03:09:35;19.17;;;11.38;;
56712;SDS011;42589;45.536;9.032;2022-09-09T03:12:36;18.15;;;11.35;;
56712;SDS011;42589;45.536;9.032;2022-09-09T03:15:37;21.85;;;12.38;;
56712;SDS011;42589;45.536;9.032;2022-09-09T03:18:38;18.00;;;11.30;;
56712;SDS011;42589;45.536;9.032;2022-09-09T03:21:39;18.05;;;11.93;;
56712;SDS011;42589;45.536;9.032;2022-09-09T03:24:40;19.55;;;12.90;;
56712;SDS011;42589;45.536;9.032;2022-09-09T03:27:41;19.42;;;12.82;;
56712;SDS011;42589;45.536;9.032;2022-09-09T03:30:42;22.77;;;13.40;;
56712;SDS011;42589;45.536;9.032;2022-09-09T03:33:43;18.23;;;13.82;;
56712;SDS011;42589;45.536;9.032;2022-09-09T03:36:44;20.75;;;14.85;;
56712;SDS011;42589;45.536;9.032;2022-09-09T03:39:45;20.60;;;15.98;;
56712;SDS011;42589;45.536;9.032;2022-09-09T03:42:49;26.23;;;17.90;;
56712;SDS011;42589;45.536;9.032;2022-09-09T03:45:50;24.05;;;17.40;;
56712;SDS011;42589;45.536;9.032;2022-09-09T03:48:51;29.08;;;18.45;;
56712;SDS011;42589;45.536;9.032;2022-09-09T03:51:55;25.20;;;18.02;;
56712;SDS011;42589;45.536;9.032;2022-09-09T03:54:57;29.30;;;18.52;;
56712;SDS011;42589;45.536;9.032;2022-09-09T03:57:57;28.25;;;19.13;;
56712;SDS011;42589;45.536;9.032;2022-09-09T04:01:02;25.05;;;17.67;;
56712;SDS011;42589;45.536;9.032;2022-09-09T04:04:05;27.55;;;18.33;;
56712;SDS011;42589;45.536;9.032;2022-09-09T04:07:06;29.92;;;21.65;;
56712;SDS011;42589;45.536;9.032;2022-09-09T04:10:07;29.55;;;22.65;;
56712;SDS011;42589;45.536;9.032;2022-09-09T04:13:08;33.47;;;25.20;;
56712;SDS011;42589;45.536;9.032;2022-09-09T04:16:09;40.08;;;27.98;;
56712;SDS011;42589;45.536;9.032;2022-09-09T04:19:11;41.30;;;28.65;;
56712;SDS011;42589;45.536;9.032;2022-09-09T04:22:13;37.92;;;27.63;;
56712;SDS011;42589;45.536;9.032;2022-09-09T04:25:14;34.83;;;25.65;;
56712;SDS011;42589;45.536;9.032;2022-09-09T04:28:15;42.40;;;30.50;;
56712;SDS011;42589;45.536;9.032;2022-09-09T04:31:18;42.53;;;29.75;;
56712;SDS011;42589;45.536;9.032;2022-09-09T04:34:22;43.78;;;27.90;;
56712;SDS011;42589;45.536;9.032;2022-09-09T04:37:23;42.72;;;28.65;;
56712;SDS011;42589;45.536;9.032;2022-09-09T04:40:24;41.13;;;25.85;;
56712;SDS011;42589;45.536;9.032;2022-09-09T04:43:26;45.97;;;27.40;;
56712;SDS011;42589;45.536;9.032;2022-09-09T04:46:26;36.97;;;25.80;;
56712;SDS011;42589;45.536;9.032;2022-09-09T04:49:27;38.30;;;26.40;;
56712;SDS011;42589;45.536;9.032;2022-09-09T04:52:28;33.95;;;24.77;;
56712;SDS011;42589;45.536;9.032;2022-09-09T04:55:29;38.67;;;26.60;;
56712;SDS011;42589;45.536;9.032;2022-09-09T04:58:30;40.63;;;27.25;;
56712;SDS011;42589;45.536;9.032;2022-09-09T05:01:31;39.10;;;25.73;;
56712;SDS011;42589;45.536;9.032;2022-09-09T05:04:32;35.67;;;25.95;;
56712;SDS011;42589;45.536;9.032;2022-09-09T05:07:33;32.25;;;23.67;;
56712;SDS011;42589;45.536;9.032;2022-09-09T05:10:33;34.20;;;23.17;;
56712;SDS011;42589;45.536;9.032;2022-09-09T05:13:37;31.70;;;22.90;;
56712;SDS011;42589;45.536;9.032;2022-09-09T05:16:38;36.80;;;24.48;;
56712;SDS011;42589;45.536;9.032;2022-09-09T05:19:39;36.78;;;23.05;;
56712;SDS011;42589;45.536;9.032;2022-09-09T05:22:40;35.55;;;22.67;;
56712;SDS011;42589;45.536;9.032;2022-09-09T05:25:41;15.68;;;11.73;;
56712;SDS011;42589;45.536;9.032;2022-09-09T05:28:42;7.07;;;5.63;;
56712;SDS011;42589;45.536;9.032;2022-09-09T05:31:43;8.25;;;4.07;;
56712;SDS011;42589;45.536;9.032;2022-09-09T05:34:44;9.95;;;4.53;;
56712;SDS011;42589;45.536;9.032;2022-09-09T05:37:46;4.22;;;2.67;;
56712;SDS011;42589;45.536;9.032;2022-09-09T05:40:48;3.45;;;2.20;;
56712;SDS011;42589;45.536;9.032;2022-09-09T05:43:50;4.03;;;2.58;;
56712;SDS011;42589;45.536;9.032;2022-09-09T05:46:50;3.42;;;2.05;;
56712;SDS011;42589;45.536;9.032;2022-09-09T05:49:51;3.28;;;2.15;;
56712;SDS011;42589;45.536;9.032;2022-09-09T05:52:54;2.88;;;2.13;;
56712;SDS011;42589;45.536;9.032;2022-09-09T05:56:02;3.53;;;2.05;;
56712;SDS011;42589;45.536;9.032;2022-09-09T05:59:10;2.58;;;2.17;;
56712;SDS011;42589;45.536;9.032;2022-09-09T06:02:11;3.33;;;1.88;;
56712;SDS011;42589;45.536;9.032;2022-09-09T06:05:13;2.03;;;1.70;;
56712;SDS011;42589;45.536;9.032;2022-09-09T06:08:14;4.88;;;2.10;;
56712;SDS011;42589;45.536;9.032;2022-09-09T06:11:19;2.40;;;1.70;;
56712;SDS011;42589;45.536;9.032;2022-09-09T06:14:24;3.47;;;1.65;;
56712;SDS011;42589;45.536;9.032;2022-09-09T06:17:31;2.83;;;1.80;;
56712;SDS011;42589;45.536;9.032;2022-09-09T06:20:33;4.25;;;1.63;;
56712;SDS011;42589;45.536;9.032;2022-09-09T06:23:34;2.83;;;1.92;;
56712;SDS011;42589;45.536;9.032;2022-09-09T06:26:36;4.70;;;2.10;;
56712;SDS011;42589;45.536;9.032;2022-09-09T06:29:40;2.95;;;1.73;;
56712;SDS011;42589;45.536;9.032;2022-09-09T06:32:41;4.78;;;2.00;;
56712;SDS011;42589;45.536;9.032;2022-09-09T06:35:42;2.75;;;1.52;;
56712;SDS011;42589;45.536;9.032;2022-09-09T06:38:53;3.53;;;1.70;;
56712;SDS011;42589;45.536;9.032;2022-09-09T06:41:55;2.97;;;1.92;;
56712;SDS011;42589;45.536;9.032;2022-09-09T06:44:58;2.37;;;1.90;;
56712;SDS011;42589;45.536;9.032;2022-09-09T06:47:59;2.53;;;1.65;;
56712;SDS011;42589;45.536;9.032;2022-09-09T06:51:04;4.10;;;1.95;;
56712;SDS011;42589;45.536;9.032;2022-09-09T06:54:10;2.97;;;1.75;;
56712;SDS011;42589;45.536;9.032;2022-09-09T06:57:11;2.47;;;1.63;;
56712;SDS011;42589;45.536;9.032;2022-09-09T07:00:12;3.92;;;1.60;;
56712;SDS011;42589;45.536;9.032;2022-09-09T07:03:14;4.50;;;1.77;;
56712;SDS011;42589;45.536;9.032;2022-09-09T07:06:22;2.83;;;1.70;;
56712;SDS011;42589;45.536;9.032;2022-09-09T07:09:24;3.50;;;1.40;;
56712;SDS011;42589;45.536;9.032;2022-09-09T07:12:27;4.78;;;1.50;;
56712;SDS011;42589;45.536;9.032;2022-09-09T07:15:28;2.63;;;1.63;;
56712;SDS011;42589;45.536;9.032;2022-09-09T07:18:29;4.22;;;2.28;;
56712;SDS011;42589;45.536;9.032;2022-09-09T07:21:31;6.25;;;2.80;;
56712;SDS011;42589;45.536;9.032;2022-09-09T07:24:32;5.20;;;2.97;;
56712;SDS011;42589;45.536;9.032;2022-09-09T07:27:33;3.75;;;2.53;;
56712;SDS011;42589;45.536;9.032;2022-09-09T07:30:34;5.47;;;2.83;;
56712;SDS011;42589;45.536;9.032;2022-09-09T07:33:35;4.80;;;3.30;;
56712;SDS011;42589;45.536;9.032;2022-09-09T07:36:37;3.83;;;2.90;;
56712;SDS011;42589;45.536;9.032;2022-09-09T07:39:39;6.67;;;3.60;;
56712;SDS011;42589;45.536;9.032;2022-09-09T07:42:40;4.85;;;4.00;;
56712;SDS011;42589;45.536;9.032;2022-09-09T07:45:41;8.20;;;5.80;;
56712;SDS011;42589;45.536;9.032;2022-09-09T07:48:49;14.77;;;6.75;;
56712;SDS011;42589;45.536;9.032;2022-09-09T07:51:54;8.30;;;6.38;;
56712;SDS011;42589;45.536;9.032;2022-09-09T07:54:55;9.38;;;6.22;;
56712;SDS011;42589;45.536;9.032;2022-09-09T07:57:57;10.48;;;6.30;;
56712;SDS011;42589;45.536;9.032;2022-09-09T08:00:59;8.07;;;6.20;;
56712;SDS011;42589;45.536;9.032;2022-09-09T08:04:01;9.73;;;6.35;;
56712;SDS011;42589;45.536;9.032;2022-09-09T08:07:04;8.77;;;6.35;;
56712;SDS011;42589;45.536;9.032;2022-09-09T08:10:06;10.32;;;6.70;;
56712;SDS011;42589;45.536;9.032;2022-09-09T08:13:08;13.48;;;7.35;;
56712;SDS011;42589;45.536;9.032;2022-09-09T08:16:13;6.55;;;5.80;;
56712;SDS011;42589;45.536;9.032;2022-09-09T08:19:16;7.03;;;5.95;;
56712;SDS011;42589;45.536;9.032;2022-09-09T08:22:17;9.27;;;6.75;;
56712;SDS011;42589;45.536;9.032;2022-09-09T08:25:19;10.60;;;6.95;;
56712;SDS011;42589;45.536;9.032;2022-09-09T08:28:19;8.70;;;6.00;;
56712;SDS011;42589;45.536;9.032;2022-09-09T08:31:22;9.90;;;6.15;;
56712;SDS011;42589;45.536;9.032;2022-09-09T08:34:25;8.23;;;6.30;;
56712;SDS011;42589;45.536;9.032;2022-09-09T08:37:27;9.90;;;6.22;;
56712;SDS011;42589;45.536;9.032;2022-09-09T08:40:29;10.50;;;6.82;;
56712;SDS011;42589;45.536;9.032;2022-09-09T08:43:35;9.23;;;6.22;;
56712;SDS011;42589;45.536;9.032;2022-09-09T08:56:21;9.25;;;5.78;;
56712;SDS011;42589;45.536;9.032;2022-09-09T08:59:26;6.25;;;4.90;;
56712;SDS011;42589;45.536;9.032;2022-09-09T09:02:42;8.32;;;5.95;;
56712;SDS011;42589;45.536;9.032;2022-09-09T09:05:54;7.80;;;5.63;;
56712;SDS011;42589;45.536;9.032;2022-09-09T09:12:22;7.38;;;4.93;;
56712;SDS011;42589;45.536;9.032;2022-09-09T09:15:25;7.05;;;4.43;;
56712;SDS011;42589;45.536;9.032;2022-09-09T09:18:30;6.82;;;4.03;;
56712;SDS011;42589;45.536;9.032;2022-09-09T09:21:36;5.57;;;3.38;;
56712;SDS011;42589;45.536;9.032;2022-09-09T09:27:59;5.57;;;3.65;;
56712;SDS011;42589;45.536;9.032;2022-09-09T09:31:09;7.28;;;4.35;;
56712;SDS011;42589;45.536;9.032;2022-09-09T09:34:13;6.47;;;3.05;;
56712;SDS011;42589;45.536;9.032;2022-09-09T09:37:19;7.47;;;3.30;;
56712;SDS011;42589;45.536;9.032;2022-09-09T09:40:27;10.13;;;3.80;;
56712;SDS011;42589;45.536;9.032;2022-09-09T09:46:38;5.20;;;3.10;;
56712;SDS011;42589;45.536;9.032;2022-09-09T09:49:39;5.75;;;3.83;;
56712;SDS011;42589;45.536;9.032;2022-09-09T09:52:55;3.53;;;2.70;;
56712;SDS011;42589;45.536;9.032;2022-09-09T09:59:03;3.85;;;2.75;;
56712;SDS011;42589;45.536;9.032;2022-09-09T10:05:19;3.58;;;2.75;;
56712;SDS011;42589;45.536;9.032;2022-09-09T10:08:25;3.20;;;2.03;;
56712;SDS011;42589;45.536;9.032;2022-09-09T10:11:43;2.70;;;1.85;;
56712;SDS011;42589;45.536;9.032;2022-09-09T10:15:07;3.63;;;2.25;;
56712;SDS011;42589;45.536;9.032;2022-09-09T10:21:49;3.05;;;1.83;;
56712;SDS011;42589;45.536;9.032;2022-09-09T10:32:02;4.43;;;1.70;;
56712;SDS011;42589;45.536;9.032;2022-09-09T10:38:43;4.10;;;1.58;;
56712;SDS011;42589;45.536;9.032;2022-09-09T10:45:15;2.35;;;1.33;;
56712;SDS011;42589;45.536;9.032;2022-09-09T10:48:24;3.53;;;1.70;;
56712;SDS011;42589;45.536;9.032;2022-09-09T10:51:33;4.90;;;1.67;;
56712;SDS011;42589;45.536;9.032;2022-09-09T10:58:14;4.53;;;1.85;;
56712;SDS011;42589;45.536;9.032;2022-09-09T11:01:27;4.00;;;1.70;;
56712;SDS011;42589;45.536;9.032;2022-09-09T11:04:57;2.95;;;1.95;;
56712;SDS011;42589;45.536;9.032;2022-09-09T11:08:20;4.25;;;2.15;;
56712;SDS011;42589;45.536;9.032;2022-09-09T11:11:31;4.57;;;2.00;;
56712;SDS011;42589;45.536;9.032;2022-09-09T11:17:49;3.00;;;1.65;;
56712;SDS011;42589;45.536;9.032;2022-09-09T11:20:57;2.53;;;1.85;;
56712;SDS011;42589;45.536;9.032;2022-09-09T11:24:03;3.28;;;1.90;;
56712;SDS011;42589;45.536;9.032;2022-09-09T11:30:20;6.28;;;2.05;;
56712;SDS011;42589;45.536;9.032;2022-09-09T11:33:31;4.30;;;2.20;;
56712;SDS011;42589;45.536;9.032;2022-09-09T11:40:38;3.83;;;2.42;;
56712;SDS011;42589;45.536;9.032;2022-09-09T11:43:43;4.32;;;2.13;;
56712;SDS011;42589;45.536;9.032;2022-09-09T11:46:53;9.68;;;2.20;;
56712;SDS011;42589;45.536;9.032;2022-09-09T11:50:06;6.60;;;2.30;;
56712;SDS011;42589;45.536;9.032;2022-09-09T11:53:26;5.53;;;2.13;;
56712;SDS011;42589;45.536;9.032;2022-09-09T11:56:28;7.25;;;2.20;;
56712;SDS011;42589;45.536;9.032;2022-09-09T11:59:31;4.47;;;2.40;;
56712;SDS011;42589;45.536;9.032;2022-09-09T12:02:33;2.50;;;1.98;;
56712;SDS011;42589;45.536;9.032;2022-09-09T12:05:40;1.98;;;1.77;;
56712;SDS011;42589;45.536;9.032;2022-09-09T12:08:46;3.65;;;2.00;;
56712;SDS011;42589;45.536;9.032;2022-09-09T12:11:51;3.67;;;2.40;;
56712;SDS011;42589;45.536;9.032;2022-09-09T12:15:00;4.53;;;2.00;;
56712;SDS011;42589;45.536;9.032;2022-09-09T12:24:35;4.45;;;2.08;;
56712;SDS011;42589;45.536;9.032;2022-09-09T12:27:47;3.15;;;2.30;;
56712;SDS011;42589;45.536;9.032;2022-09-09T12:31:18;3.30;;;2.17;;
56712;SDS011;42589;45.536;9.032;2022-09-09T12:40:54;4.63;;;1.60;;
56712;SDS011;42589;45.536;9.032;2022-09-09T12:44:06;2.78;;;2.00;;
56712;SDS011;42589;45.536;9.032;2022-09-09T12:47:09;4.18;;;1.65;;
56712;SDS011;42589;45.536;9.032;2022-09-09T12:50:17;4.00;;;2.00;;
56712;SDS011;42589;45.536;9.032;2022-09-09T12:56:27;4.65;;;1.83;;
56712;SDS011;42589;45.536;9.032;2022-09-09T12:59:35;3.97;;;1.80;;
56712;SDS011;42589;45.536;9.032;2022-09-09T13:02:47;4.47;;;1.80;;
56712;SDS011;42589;45.536;9.032;2022-09-09T13:05:50;5.05;;;2.00;;
56712;SDS011;42589;45.536;9.032;2022-09-09T13:08:51;7.10;;;2.03;;
56712;SDS011;42589;45.536;9.032;2022-09-09T13:11:53;2.67;;;1.60;;
56712;SDS011;42589;45.536;9.032;2022-09-09T13:14:56;2.25;;;1.75;;
56712;SDS011;42589;45.536;9.032;2022-09-09T13:17:58;7.03;;;2.10;;
56712;SDS011;42589;45.536;9.032;2022-09-09T13:21:03;3.28;;;1.90;;
56712;SDS011;42589;45.536;9.032;2022-09-09T13:24:27;4.88;;;1.88;;
56712;SDS011;42589;45.536;9.032;2022-09-09T13:27:28;5.43;;;1.60;;
56712;SDS011;42589;45.536;9.032;2022-09-09T13:30:32;6.57;;;1.92;;
56712;SDS011;42589;45.536;9.032;2022-09-09T13:33:36;4.32;;;1.67;;
56712;SDS011;42589;45.536;9.032;2022-09-09T13:36:38;3.22;;;1.73;;
56712;SDS011;42589;45.536;9.032;2022-09-09T13:39:50;4.78;;;2.15;;
56712;SDS011;42589;45.536;9.032;2022-09-09T13:42:54;3.80;;;1.75;;
56712;SDS011;42589;45.536;9.032;2022-09-09T13:45:59;3.85;;;1.75;;
56712;SDS011;42589;45.536;9.032;2022-09-09T13:52:12;4.07;;;1.60;;
56712;SDS011;42589;45.536;9.032;2022-09-09T13:55:15;3.88;;;2.00;;
56712;SDS011;42589;45.536;9.032;2022-09-09T13:58:18;4.10;;;1.50;;
56712;SDS011;42589;45.536;9.032;2022-09-09T14:01:19;4.55;;;1.98;;
56712;SDS011;42589;45.536;9.032;2022-09-09T14:04:20;3.20;;;1.42;;
56712;SDS011;42589;45.536;9.032;2022-09-09T14:07:21;3.15;;;1.70;;
56712;SDS011;42589;45.536;9.032;2022-09-09T14:10:23;3.42;;;1.48;;
56712;SDS011;42589;45.536;9.032;2022-09-09T14:13:23;4.75;;;1.80;;
56712;SDS011;42589;45.536;9.032;2022-09-09T14:16:24;3.22;;;1.55;;
56712;SDS011;42589;45.536;9.032;2022-09-09T14:19:27;1.77;;;1.45;;
56712;SDS011;42589;45.536;9.032;2022-09-09T14:22:28;3.38;;;1.60;;
56712;SDS011;42589;45.536;9.032;2022-09-09T14:25:29;4.13;;;1.77;;
56712;SDS011;42589;45.536;9.032;2022-09-09T14:28:31;2.30;;;1.40;;
56712;SDS011;42589;45.536;9.032;2022-09-09T14:31:33;5.40;;;1.50;;
56712;SDS011;42589;45.536;9.032;2022-09-09T14:34:34;3.35;;;1.60;;
56712;SDS011;42589;45.536;9.032;2022-09-09T14:37:35;5.93;;;2.10;;
56712;SDS011;42589;45.536;9.032;2022-09-09T14:40:36;3.60;;;1.88;;
56712;SDS011;42589;45.536;9.032;2022-09-09T14:43:38;4.13;;;1.50;;
56712;SDS011;42589;45.536;9.032;2022-09-09T14:46:46;2.40;;;1.52;;
56712;SDS011;42589;45.536;9.032;2022-09-09T14:49:46;3.15;;;1.70;;
56712;SDS011;42589;45.536;9.032;2022-09-09T14:52:49;4.28;;;1.70;;
56712;SDS011;42589;45.536;9.032;2022-09-09T14:55:50;6.35;;;1.85;;
56712;SDS011;42589;45.536;9.032;2022-09-09T14:58:54;2.22;;;1.70;;
56712;SDS011;42589;45.536;9.032;2022-09-09T15:01:56;3.13;;;1.65;;
56712;SDS011;42589;45.536;9.032;2022-09-09T15:04:58;3.22;;;1.70;;
56712;SDS011;42589;45.536;9.032;2022-09-09T15:07:59;2.83;;;1.60;;
56712;SDS011;42589;45.536;9.032;2022-09-09T15:11:01;2.10;;;1.42;;
56712;SDS011;42589;45.536;9.032;2022-09-09T15:14:02;3.72;;;1.60;;
56712;SDS011;42589;45.536;9.032;2022-09-09T15:17:03;3.05;;;1.40;;
56712;SDS011;42589;45.536;9.032;2022-09-09T15:20:04;4.25;;;1.58;;
56712;SDS011;42589;45.536;9.032;2022-09-09T15:26:09;1.50;;;1.40;;
56712;SDS011;42589;45.536;9.032;2022-09-09T15:29:10;1.77;;;1.35;;
56712;SDS011;42589;45.536;9.032;2022-09-09T15:32:10;3.53;;;1.83;;
56712;SDS011;42589;45.536;9.032;2022-09-09T15:35:11;3.17;;;1.88;;
56712;SDS011;42589;45.536;9.032;2022-09-09T15:38:12;4.38;;;1.60;;
56712;SDS011;42589;45.536;9.032;2022-09-09T15:41:13;2.17;;;1.40;;
56712;SDS011;42589;45.536;9.032;2022-09-09T15:44:14;11.32;;;2.00;;
56712;SDS011;42589;45.536;9.032;2022-09-09T15:47:15;3.22;;;1.20;;
56712;SDS011;42589;45.536;9.032;2022-09-09T15:50:16;5.05;;;1.55;;
56712;SDS011;42589;45.536;9.032;2022-09-09T15:53:17;1.90;;;1.27;;
56712;SDS011;42589;45.536;9.032;2022-09-09T15:56:20;6.00;;;1.60;;
56712;SDS011;42589;45.536;9.032;2022-09-09T15:59:22;4.57;;;1.65;;
56712;SDS011;42589;45.536;9.032;2022-09-09T16:02:23;4.53;;;1.55;;
56712;SDS011;42589;45.536;9.032;2022-09-09T16:05:24;3.38;;;1.30;;
56712;SDS011;42589;45.536;9.032;2022-09-09T16:08:31;3.97;;;1.70;;
56712;SDS011;42589;45.536;9.032;2022-09-09T16:11:36;5.22;;;1.63;;
56712;SDS011;42589;45.536;9.032;2022-09-09T16:14:38;4.85;;;2.08;;
56712;SDS011;42589;45.536;9.032;2022-09-09T16:17:39;2.50;;;1.40;;
56712;SDS011;42589;45.536;9.032;2022-09-09T16:20:41;3.30;;;1.48;;
56712;SDS011;42589;45.536;9.032;2022-09-09T16:23:42;4.25;;;1.20;;
56712;SDS011;42589;45.536;9.032;2022-09-09T16:26:44;4.18;;;1.27;;
56712;SDS011;42589;45.536;9.032;2022-09-09T16:29:47;1.88;;;1.20;;
56712;SDS011;42589;45.536;9.032;2022-09-09T16:32:49;3.33;;;1.70;;
56712;SDS011;42589;45.536;9.032;2022-09-09T16:35:50;8.65;;;2.38;;
56712;SDS011;42589;45.536;9.032;2022-09-09T16:38:54;4.38;;;1.90;;
56712;SDS011;42589;45.536;9.032;2022-09-09T16:41:55;7.00;;;1.70;;
56712;SDS011;42589;45.536;9.032;2022-09-09T16:44:57;2.05;;;1.33;;
56712;SDS011;42589;45.536;9.032;2022-09-09T16:48:01;4.30;;;1.25;;
56712;SDS011;42589;45.536;9.032;2022-09-09T16:51:05;2.40;;;1.20;;
56712;SDS011;42589;45.536;9.032;2022-09-09T16:54:07;3.00;;;1.55;;
56712;SDS011;42589;45.536;9.032;2022-09-09T16:57:09;7.28;;;2.40;;
56712;SDS011;42589;45.536;9.032;2022-09-09T17:00:09;2.83;;;1.27;;
56712;SDS011;42589;45.536;9.032;2022-09-09T17:03:12;1.40;;;1.10;;
56712;SDS011;42589;45.536;9.032;2022-09-09T17:06:14;2.60;;;1.20;;
56712;SDS011;42589;45.536;9.032;2022-09-09T17:09:16;3.88;;;1.52;;
56712;SDS011;42589;45.536;9.032;2022-09-09T17:12:17;6.63;;;2.17;;
56712;SDS011;42589;45.536;9.032;2022-09-09T17:15:18;2.08;;;1.38;;
56712;SDS011;42589;45.536;9.032;2022-09-09T17:18:18;4.28;;;1.40;;
56712;SDS011;42589;45.536;9.032;2022-09-09T17:21:21;3.83;;;1.45;;
56712;SDS011;42589;45.536;9.032;2022-09-09T17:24:26;2.80;;;1.60;;
56712;SDS011;42589;45.536;9.032;2022-09-09T17:27:28;4.78;;;2.45;;
56712;SDS011;42589;45.536;9.032;2022-09-09T17:30:34;5.97;;;1.90;;
56712;SDS011;42589;45.536;9.032;2022-09-09T17:33:37;6.93;;;1.60;;
56712;SDS011;42589;45.536;9.032;2022-09-09T17:36:39;4.68;;;1.83;;
56712;SDS011;42589;45.536;9.032;2022-09-09T17:39:40;5.95;;;1.80;;
56712;SDS011;42589;45.536;9.032;2022-09-09T17:42:41;2.50;;;1.55;;
56712;SDS011;42589;45.536;9.032;2022-09-09T17:45:42;4.15;;;1.70;;
56712;SDS011;42589;45.536;9.032;2022-09-09T17:48:46;2.08;;;1.63;;
56712;SDS011;42589;45.536;9.032;2022-09-09T17:51:48;4.25;;;1.92;;
56712;SDS011;42589;45.536;9.032;2022-09-09T17:54:52;8.15;;;2.05;;
56712;SDS011;42589;45.536;9.032;2022-09-09T17:57:56;5.78;;;1.90;;
56712;SDS011;42589;45.536;9.032;2022-09-09T18:01:10;4.55;;;1.90;;
56712;SDS011;42589;45.536;9.032;2022-09-09T18:04:14;3.60;;;2.25;;
56712;SDS011;42589;45.536;9.032;2022-09-09T18:07:15;6.00;;;2.10;;
56712;SDS011;42589;45.536;9.032;2022-09-09T18:10:16;3.88;;;2.00;;
56712;SDS011;42589;45.536;9.032;2022-09-09T18:13:17;4.53;;;1.98;;
56712;SDS011;42589;45.536;9.032;2022-09-09T18:16:19;4.55;;;2.25;;
56712;SDS011;42589;45.536;9.032;2022-09-09T18:19:22;6.97;;;2.22;;
56712;SDS011;42589;45.536;9.032;2022-09-09T18:22:24;3.70;;;1.90;;
56712;SDS011;42589;45.536;9.032;2022-09-09T18:25:25;4.15;;;2.35;;
56712;SDS011;42589;45.536;9.032;2022-09-09T18:28:26;3.72;;;2.10;;
56712;SDS011;42589;45.536;9.032;2022-09-09T18:31:27;6.82;;;2.42;;
56712;SDS011;42589;45.536;9.032;2022-09-09T18:34:29;3.38;;;2.10;;
56712;SDS011;42589;45.536;9.032;2022-09-09T18:37:30;2.85;;;1.85;;
56712;SDS011;42589;45.536;9.032;2022-09-09T18:40:33;5.03;;;2.30;;
56712;SDS011;42589;45.536;9.032;2022-09-09T18:43:34;4.75;;;2.20;;
56712;SDS011;42589;45.536;9.032;2022-09-09T18:46:35;5.55;;;2.67;;
56712;SDS011;42589;45.536;9.032;2022-09-09T18:49:36;6.05;;;2.75;;
56712;SDS011;42589;45.536;9.032;2022-09-09T18:52:37;6.47;;;2.85;;
56712;SDS011;42589;45.536;9.032;2022-09-09T18:55:38;4.95;;;2.70;;
56712;SDS011;42589;45.536;9.032;2022-09-09T18:58:39;4.15;;;2.58;;
56712;SDS011;42589;45.536;9.032;2022-09-09T19:01:42;5.32;;;2.58;;
56712;SDS011;42589;45.536;9.032;2022-09-09T19:04:44;6.88;;;2.88;;
56712;SDS011;42589;45.536;9.032;2022-09-09T19:07:45;6.57;;;2.67;;
56712;SDS011;42589;45.536;9.032;2022-09-09T19:10:46;6.50;;;3.10;;
56712;SDS011;42589;45.536;9.032;2022-09-09T19:13:50;7.60;;;2.90;;
56712;SDS011;42589;45.536;9.032;2022-09-09T19:16:52;4.53;;;2.58;;
56712;SDS011;42589;45.536;9.032;2022-09-09T19:19:54;7.22;;;3.15;;
56712;SDS011;42589;45.536;9.032;2022-09-09T19:22:55;5.30;;;3.15;;
56712;SDS011;42589;45.536;9.032;2022-09-09T19:26:00;8.15;;;3.17;;
56712;SDS011;42589;45.536;9.032;2022-09-09T19:29:02;6.25;;;3.47;;
56712;SDS011;42589;45.536;9.032;2022-09-09T19:32:03;7.03;;;3.28;;
56712;SDS011;42589;45.536;9.032;2022-09-09T19:35:04;7.15;;;3.05;;
56712;SDS011;42589;45.536;9.032;2022-09-09T19:38:05;7.05;;;3.22;;
56712;SDS011;42589;45.536;9.032;2022-09-09T19:41:08;9.05;;;3.70;;
56712;SDS011;42589;45.536;9.032;2022-09-09T19:44:11;9.15;;;3.72;;
56712;SDS011;42589;45.536;9.032;2022-09-09T19:47:12;8.70;;;3.60;;
56712;SDS011;42589;45.536;9.032;2022-09-09T19:50:13;5.47;;;3.80;;
56712;SDS011;42589;45.536;9.032;2022-09-09T19:53:15;7.95;;;4.25;;
56712;SDS011;42589;45.536;9.032;2022-09-09T19:56:17;6.95;;;3.78;;
56712;SDS011;42589;45.536;9.032;2022-09-09T19:59:19;5.18;;;3.13;;
56712;SDS011;42589;45.536;9.032;2022-09-09T20:02:19;6.80;;;3.60;;
56712;SDS011;42589;45.536;9.032;2022-09-09T20:05:20;7.70;;;4.50;;
56712;SDS011;42589;45.536;9.032;2022-09-09T20:08:23;8.55;;;4.90;;
56712;SDS011;42589;45.536;9.032;2022-09-09T20:11:27;6.93;;;4.32;;
56712;SDS011;42589;45.536;9.032;2022-09-09T20:14:28;7.68;;;3.47;;
56712;SDS011;42589;45.536;9.032;2022-09-09T20:17:28;9.43;;;3.72;;